Time;durP1;ratioP1;P1;durP2;ratioP2;P2;SDS_P1;SDS_P2;PMS_P1;PMS_P2;Temp;Humidity;BMP_temperature;BMP_pressure;BME280_temperature;BME280_humidity;BME280_pressure;Samples;Min_cycle;Max_cycle;Signal;HPM_P1;HPM_P2
2024/03/19 00:02:55;;;;;;;;;;;;;;;8.03;100.00;95829.94;10490211;28;2826;-65
2024/03/19 00:07:57;;;;;;;;;;;;;;;8.06;100.00;95832.09;10488994;28;2778;-66
2024/03/19 00:12:59;;;;;;;;;;;;;;;8.06;100.00;95828.63;10486131;28;3030;-66
2024/03/19 00:18:00;;;;;;;;;;;;;;;8.10;100.00;95835.88;10491799;28;2876;-65
2024/03/19 00:23:02;;;;;;;;;;;;;;;8.05;100.00;95833.16;10490094;28;2809;-66
2024/03/19 00:28:03;;;;;;;;;;;;;;;8.02;100.00;95839.03;10479148;28;2659;-71
2024/03/19 00:33:06;;;;;;;;;;;;;;;8.07;100.00;95824.88;10491853;28;2738;-69
2024/03/19 00:38:07;;;;;;;;;;;;;;;7.97;100.00;95830.97;10488476;28;2726;-66
2024/03/19 00:43:10;;;;;;;;;;;;;;;8.03;100.00;95835.31;10489319;28;2825;-66
2024/03/19 00:48:11;;;;;;;;;;;;;;;8.03;100.00;95831.81;10495151;28;2827;-66
2024/03/19 00:53:13;;;;;;;;;;;;;;;7.89;100.00;95825.25;10502981;28;2664;-67
2024/03/19 00:58:14;;;;;;;;;;;;;;;7.92;100.00;95833.59;10490020;28;2936;-68
2024/03/19 01:03:16;;;;;;;;;;;;;;;7.82;100.00;95830.81;10500578;28;2809;-67
2024/03/19 01:08:18;;;;;;;;;;;;;;;7.77;100.00;95831.59;10501674;28;2822;-66
2024/03/19 01:13:20;;;;;;;;;;;;;;;7.79;100.00;95831.34;10492414;28;2903;-66
2024/03/19 01:18:22;;;;;;;;;;;;;;;7.69;100.00;95823.22;10498466;28;2960;-66
2024/03/19 01:23:23;;;;;;;;;;;;;;;7.68;100.00;95822.41;10482504;28;2792;-66
2024/03/19 01:28:25;;;;;;;;;;;;;;;7.63;100.00;95817.00;10492184;28;2859;-66
2024/03/19 01:33:26;;;;;;;;;;;;;;;7.69;100.00;95813.31;10470549;28;2623;-67
2024/03/19 01:38:28;;;;;;;;;;;;;;;7.71;100.00;95821.13;10488277;28;2866;-66
2024/03/19 01:43:30;;;;;;;;;;;;;;;7.69;100.00;95828.56;10476017;28;2809;-65
2024/03/19 01:48:31;;;;;;;;;;;;;;;7.68;100.00;95824.28;10500199;28;2730;-67
2024/03/19 01:53:34;;;;;;;;;;;;;;;7.58;100.00;95820.47;10490304;28;2839;-66
2024/03/19 01:58:36;;;;;;;;;;;;;;;7.61;100.00;95816.47;10482975;28;2889;-68
2024/03/19 02:03:37;;;;;;;;;;;;;;;7.66;100.00;95803.13;10489364;28;2815;-66
2024/03/19 02:08:39;;;;;;;;;;;;;;;7.69;100.00;95801.81;10499484;28;2937;-67
2024/03/19 02:13:41;;;;;;;;;;;;;;;7.76;100.00;95807.75;10494314;28;2803;-67
2024/03/19 02:18:42;;;;;;;;;;;;;;;7.66;100.00;95808.47;10495739;28;2952;-65
2024/03/19 02:23:44;;;;;;;;;;;;;;;7.58;100.00;95811.63;10494292;28;2797;-73
2024/03/19 02:28:45;;;;;;;;;;;;;;;7.61;100.00;95810.31;10492933;28;2796;-73
2024/03/19 02:33:47;;;;;;;;;;;;;;;7.58;100.00;95812.44;10493179;28;2789;-73
2024/03/19 02:38:48;;;;;;;;;;;;;;;7.61;100.00;95807.63;10494040;28;2887;-70
2024/03/19 02:43:50;;;;;;;;;;;;;;;7.59;100.00;95816.72;10494451;28;2854;-69
2024/03/19 02:48:52;;;;;;;;;;;;;;;7.52;100.00;95804.63;10501990;28;2866;-67
2024/03/19 02:53:53;;;;;;;;;;;;;;;7.54;100.00;95807.84;10501613;28;3019;-71
2024/03/19 02:58:55;;;;;;;;;;;;;;;7.60;100.00;95809.50;10499462;28;2739;-66
2024/03/19 03:03:57;;;;;;;;;;;;;;;7.64;100.00;95815.16;10494718;28;2836;-67
2024/03/19 03:08:59;;;;;;;;;;;;;;;7.71;100.00;95813.09;10489005;28;2789;-66
2024/03/19 03:14:00;;;;;;;;;;;;;;;7.69;100.00;95818.66;10493859;28;2845;-68
2024/03/19 03:19:02;;;;;;;;;;;;;;;7.63;100.00;95824.22;10492409;28;2889;-66
2024/03/19 03:24:04;;;;;;;;;;;;;;;7.65;100.00;95830.16;10489415;28;2837;-68
2024/03/19 03:29:05;;;;;;;;;;;;;;;7.70;100.00;95830.16;10486880;28;2812;-68
2024/03/19 03:34:07;;;;;;;;;;;;;;;7.67;100.00;95825.34;10488694;28;2887;-70
2024/03/19 03:39:10;;;;;;;;;;;;;;;7.61;100.00;95826.34;10475596;28;2817;-66
2024/03/19 03:44:13;;;;;;;;;;;;;;;7.69;100.00;95833.91;10492567;28;2756;-66
2024/03/19 03:49:15;;;;;;;;;;;;;;;7.74;100.00;95836.66;10490287;28;2863;-67
2024/03/19 03:54:17;;;;;;;;;;;;;;;7.82;100.00;95839.69;10491350;28;2596;-67
2024/03/19 03:59:19;;;;;;;;;;;;;;;7.93;100.00;95845.91;10487570;28;2820;-67
2024/03/19 04:04:20;;;;;;;;;;;;;;;7.94;100.00;95842.16;10486705;28;2747;-68
2024/03/19 04:09:22;;;;;;;;;;;;;;;7.96;100.00;95834.72;10493261;28;2785;-66
2024/03/19 04:14:24;;;;;;;;;;;;;;;7.91;100.00;95840.00;10494023;28;2695;-66
2024/03/19 04:19:25;;;;;;;;;;;;;;;7.92;100.00;95838.16;10491504;28;2614;-67
2024/03/19 04:24:27;;;;;;;;;;;;;;;7.90;100.00;95841.09;10494929;28;3068;-67
2024/03/19 04:29:28;;;;;;;;;;;;;;;7.82;100.00;95839.69;10485378;28;2825;-67
2024/03/19 04:34:30;;;;;;;;;;;;;;;7.73;100.00;95843.06;10496495;28;2717;-66
2024/03/19 04:39:31;;;;;;;;;;;;;;;7.73;100.00;95848.41;10497884;28;2649;-66
2024/03/19 04:44:33;;;;;;;;;;;;;;;7.77;100.00;95846.84;10496848;28;2810;-66
2024/03/19 04:49:34;;;;;;;;;;;;;;;7.73;100.00;95851.09;10494847;28;2817;-70
2024/03/19 04:54:36;;;;;;;;;;;;;;;7.73;100.00;95851.09;10502669;28;2919;-64
2024/03/19 04:59:37;;;;;;;;;;;;;;;7.75;100.00;95851.63;10492981;28;2824;-67
2024/03/19 05:04:39;;;;;;;;;;;;;;;7.75;100.00;95843.59;10502615;28;2609;-65
2024/03/19 05:09:41;;;;;;;;;;;;;;;7.71;100.00;95848.66;10497369;28;2919;-69
2024/03/19 05:14:42;;;;;;;;;;;;;;;7.68;100.00;95843.81;10497225;28;2804;-67
2024/03/19 05:19:44;;;;;;;;;;;;;;;7.74;100.00;95845.47;10498851;28;2861;-67
2024/03/19 05:24:45;;;;;;;;;;;;;;;7.77;100.00;95849.53;10494434;28;2797;-66
2024/03/19 05:29:48;;;;;;;;;;;;;;;7.73;100.00;95851.09;10489562;28;2824;-67
2024/03/19 05:34:51;;;;;;;;;;;;;;;7.72;100.00;95844.13;10494261;28;2746;-68
2024/03/19 05:39:53;;;;;;;;;;;;;;;7.74;100.00;95852.69;10500971;28;2828;-70
2024/03/19 05:44:56;;;;;;;;;;;;;;;7.82;100.00;95844.19;10492179;28;2734;-66
2024/03/19 05:49:58;;;;;;;;;;;;;;;7.83;100.00;95837.81;10490312;28;2801;-67
2024/03/19 05:55:00;;;;;;;;;;;;;;;7.90;100.00;95846.44;10498348;28;2896;-67
2024/03/19 06:00:04;;;;;;;;;;;;;;;8.04;100.00;95852.97;10495080;28;2769;-67
2024/03/19 06:05:07;;;;;;;;;;;;;;;7.97;100.00;95857.75;10496193;28;2791;-70
2024/03/19 06:10:09;;;;;;;;;;;;;;;8.20;100.00;95869.16;10505718;28;2738;-76
2024/03/19 06:15:11;;;;;;;;;;;;;;;8.24;100.00;95864.91;10498090;28;2801;-69
2024/03/19 06:20:17;;;;;;;;;;;;;;;8.15;100.00;95869.13;10491710;28;2780;-68
2024/03/19 06:25:19;;;;;;;;;;;;;;;8.06;100.00;95874.13;10494127;28;2872;-69
2024/03/19 06:30:21;;;;;;;;;;;;;;;8.29;100.00;95875.66;10492166;28;2927;-66
2024/03/19 06:35:22;;;;;;;;;;;;;;;8.43;100.00;95882.22;10492013;28;2880;-67
2024/03/19 06:40:24;;;;;;;;;;;;;;;8.63;100.00;95884.22;10492127;28;2820;-71
2024/03/19 06:45:29;;;;;;;;;;;;;;;8.70;100.00;95878.63;10497088;28;2750;-73
2024/03/19 06:50:31;;;;;;;;;;;;;;;9.05;100.00;95886.91;10494786;28;2906;-72
2024/03/19 06:55:33;;;;;;;;;;;;;;;9.18;100.00;95883.72;10499861;28;2819;-70
2024/03/19 07:00:36;;;;;;;;;;;;;;;9.19;100.00;95882.66;10475363;28;2798;-75
2024/03/19 07:05:38;;;;;;;;;;;;;;;9.19;100.00;95895.25;10494455;28;2733;-72
2024/03/19 07:10:40;;;;;;;;;;;;;;;8.96;100.00;95901.03;10479026;28;3042;-71
2024/03/19 07:15:41;;;;;;;;;;;;;;;9.04;100.00;95904.06;10496548;28;2900;-73
2024/03/19 07:20:43;;;;;;;;;;;;;;;9.45;100.00;95898.84;10490292;28;2748;-72
2024/03/19 07:25:44;;;;;;;;;;;;;;;9.12;100.00;95900.88;10489747;28;2761;-72
2024/03/19 07:30:46;;;;;;;;;;;;;;;8.52;100.00;95899.41;10490491;28;2796;-72
2024/03/19 07:35:48;;;;;;;;;;;;;;;9.15;100.00;95911.06;10495921;28;2897;-73
2024/03/19 07:40:50;;;;;;;;;;;;;;;9.55;100.00;95908.84;10478791;28;2741;-71
2024/03/19 07:45:52;;;;;;;;;;;;;;;9.91;100.00;95910.50;10489127;28;2871;-72
2024/03/19 07:50:54;;;;;;;;;;;;;;;10.01;100.00;95909.75;10492611;28;2778;-69
2024/03/19 07:55:56;;;;;;;;;;;;;;;10.44;100.00;95904.97;10491535;28;2760;-69
2024/03/19 08:00:58;;;;;;;;;;;;;;;10.89;100.00;95897.94;10488234;28;2756;-72
2024/03/19 08:05:59;;;;;;;;;;;;;;;10.51;100.00;95900.94;10491493;28;2866;-73
2024/03/19 08:11:02;;;;;;;;;;;;;;;10.21;100.00;95907.06;10477179;28;2838;-74
2024/03/19 08:16:03;;;;;;;;;;;;;;;10.35;100.00;95907.38;10496897;28;2781;-71
2024/03/19 08:21:05;;;;;;;;;;;;;;;11.15;100.00;95920.19;10491088;28;2880;-70
2024/03/19 08:26:06;;;;;;;;;;;;;;;10.87;100.00;95919.69;10498701;28;2808;-72
2024/03/19 08:31:09;;;;;;;;;;;;;;;10.24;100.00;95920.00;10496929;28;2949;-73
2024/03/19 08:36:11;;;;;;;;;;;;;;;10.65;100.00;95917.31;10488084;28;2926;-72
2024/03/19 08:41:12;;;;;;;;;;;;;;;11.44;100.00;95923.03;10487764;28;2925;-73
2024/03/19 08:46:16;;;;;;;;;;;;;;;11.57;100.00;95922.44;10491358;28;2879;-74
2024/03/19 08:51:17;;;;;;;;;;;;;;;11.81;100.00;95923.44;10486082;28;2912;-72
2024/03/19 08:56:19;;;;;;;;;;;;;;;12.08;100.00;95927.59;10492656;28;2833;-73
2024/03/19 09:01:21;;;;;;;;;;;;;;;12.58;100.00;95925.63;10492513;28;2805;-73
2024/03/19 09:06:23;;;;;;;;;;;;;;;12.70;100.00;95917.97;10492489;28;2852;-75
2024/03/19 09:11:24;;;;;;;;;;;;;;;13.14;100.00;95927.81;10504235;28;2820;-72
2024/03/19 09:16:26;;;;;;;;;;;;;;;13.14;100.00;95933.22;10499187;28;2875;-70
2024/03/19 09:21:28;;;;;;;;;;;;;;;12.93;100.00;95929.94;10498684;28;2829;-74
2024/03/19 09:26:29;;;;;;;;;;;;;;;12.28;100.00;95932.06;10500187;28;3088;-71
2024/03/19 09:31:31;;;;;;;;;;;;;;;12.65;100.00;95937.69;10498753;28;2819;-72
2024/03/19 09:36:32;;;;;;;;;;;;;;;13.09;100.00;95944.06;10495939;28;3006;-70
2024/03/19 09:41:34;;;;;;;;;;;;;;;12.02;100.00;95944.88;10497354;28;2846;-73
2024/03/19 09:46:35;;;;;;;;;;;;;;;12.88;100.00;95938.88;10498094;28;2789;-72
2024/03/19 09:51:38;;;;;;;;;;;;;;;12.66;100.00;95938.50;10508283;28;2803;-75
2024/03/19 09:56:40;;;;;;;;;;;;;;;12.74;100.00;95942.50;10500531;28;2915;-71
2024/03/19 10:01:41;;;;;;;;;;;;;;;12.53;100.00;95944.53;10498310;28;2841;-72
2024/03/19 10:06:43;;;;;;;;;;;;;;;12.29;100.00;95942.56;10474112;28;2942;-76
2024/03/19 10:11:44;;;;;;;;;;;;;;;12.33;100.00;95940.91;10494957;28;2766;-74
2024/03/19 10:16:50;;;;;;;;;;;;;;;12.40;100.00;95933.31;10485909;28;2887;-76
2024/03/19 10:21:52;;;;;;;;;;;;;;;13.28;100.00;95934.19;10475126;28;2972;-73
2024/03/19 10:26:55;;;;;;;;;;;;;;;13.74;100.00;95920.13;10493410;28;2784;-71
2024/03/19 10:31:56;;;;;;;;;;;;;;;13.44;100.00;95918.63;10495480;28;2730;-72
2024/03/19 10:36:58;;;;;;;;;;;;;;;13.55;100.00;95916.59;10495637;28;2905;-71
2024/03/19 10:42:03;;;;;;;;;;;;;;;13.18;100.00;95913.47;10488730;28;2841;-73
2024/03/19 10:47:05;;;;;;;;;;;;;;;12.73;100.00;95916.63;10490982;28;2851;-74
2024/03/19 10:52:06;;;;;;;;;;;;;;;12.02;100.00;95920.63;10498931;28;2914;-72
2024/03/19 10:57:08;;;;;;;;;;;;;;;11.87;100.00;95910.75;10491958;28;2868;-72
2024/03/19 11:02:09;;;;;;;;;;;;;;;12.32;100.00;95901.56;10487844;28;2918;-73
2024/03/19 11:07:11;;;;;;;;;;;;;;;12.82;100.00;95907.63;10488352;28;2900;-72
2024/03/19 11:12:13;;;;;;;;;;;;;;;12.93;100.00;95913.75;10474740;28;2876;-71
2024/03/19 11:17:14;;;;;;;;;;;;;;;12.93;100.00;95909.16;10489660;28;2927;-71
2024/03/19 11:22:16;;;;;;;;;;;;;;;12.26;100.00;95905.38;10489664;28;2811;-72
2024/03/19 11:27:18;;;;;;;;;;;;;;;12.01;100.00;95911.75;10499462;28;2848;-72
2024/03/19 11:32:19;;;;;;;;;;;;;;;12.10;100.00;95910.09;10477947;28;2769;-71
2024/03/19 11:37:21;;;;;;;;;;;;;;;12.08;100.00;95903.34;10490624;28;2833;-73
2024/03/19 11:42:23;;;;;;;;;;;;;;;12.04;100.00;95900.44;10478748;28;2865;-72
2024/03/19 11:47:25;;;;;;;;;;;;;;;12.48;100.00;95890.69;10494912;28;2789;-72
2024/03/19 11:52:27;;;;;;;;;;;;;;;13.06;100.00;95890.69;10487283;28;2852;-73
2024/03/19 11:57:29;;;;;;;;;;;;;;;13.66;100.00;95880.25;10491171;28;2845;-73
2024/03/19 12:02:31;;;;;;;;;;;;;;;13.69;100.00;95879.69;10491659;28;2824;-72
2024/03/19 12:07:32;;;;;;;;;;;;;;;13.69;100.00;95880.50;10475289;28;2777;-73
2024/03/19 12:12:34;;;;;;;;;;;;;;;13.53;100.00;95876.38;10488892;28;2822;-72
2024/03/19 12:17:36;;;;;;;;;;;;;;;13.64;100.00;95866.25;10488191;28;2716;-72
2024/03/19 12:22:37;;;;;;;;;;;;;;;13.29;100.00;95862.88;10494121;28;2789;-73
2024/03/19 12:27:39;;;;;;;;;;;;;;;13.22;100.00;95860.53;10475173;28;2880;-72
2024/03/19 12:32:48;;;;;;;;;;;;;;;13.03;100.00;95851.56;10491792;28;2861;-73
2024/03/19 12:37:51;;;;;;;;;;;;;;;12.79;100.00;95865.06;10490544;28;2859;-73
2024/03/19 12:42:53;;;;;;;;;;;;;;;12.69;100.00;95852.44;10499011;28;2952;-73
2024/03/19 12:47:55;;;;;;;;;;;;;;;12.63;100.00;95858.97;10502519;28;2977;-73
2024/03/19 12:52:56;;;;;;;;;;;;;;;12.85;100.00;95855.81;10499977;28;2811;-73
2024/03/19 12:57:58;;;;;;;;;;;;;;;13.21;100.00;95852.75;10495890;28;2861;-74
2024/03/19 13:03:00;;;;;;;;;;;;;;;13.87;100.00;95848.34;10492894;28;2845;-72
2024/03/19 13:08:03;;;;;;;;;;;;;;;14.89;100.00;95847.56;10499621;28;2882;-74
2024/03/19 13:13:06;;;;;;;;;;;;;;;14.74;100.00;95836.97;10500370;28;2802;-71
2024/03/19 13:18:08;;;;;;;;;;;;;;;14.63;100.00;95838.25;10502507;28;2869;-75
2024/03/19 13:23:10;;;;;;;;;;;;;;;14.02;100.00;95835.44;10482982;28;2892;-73
2024/03/19 13:28:11;;;;;;;;;;;;;;;14.26;100.00;95831.84;10493390;28;2794;-73
2024/03/19 13:33:13;;;;;;;;;;;;;;;14.22;100.00;95825.41;10494295;28;3190;-73
2024/03/19 13:38:15;;;;;;;;;;;;;;;14.10;100.00;95828.56;10484021;28;2816;-72
2024/03/19 13:43:17;;;;;;;;;;;;;;;14.18;100.00;95821.66;10493946;28;2883;-72
2024/03/19 13:48:19;;;;;;;;;;;;;;;14.30;100.00;95819.31;10497817;28;2883;-70
2024/03/19 13:53:20;;;;;;;;;;;;;;;14.47;97.45;95821.50;10485095;28;2778;-72
2024/03/19 13:58:24;;;;;;;;;;;;;;;15.10;96.66;95820.88;10476137;28;2829;-72
2024/03/19 14:03:26;;;;;;;;;;;;;;;15.11;75.84;95815.16;10497071;28;2919;-71
2024/03/19 14:08:29;;;;;;;;;;;;;;;15.29;78.86;95818.06;10492498;28;2836;-72
2024/03/19 14:13:30;;;;;;;;;;;;;;;14.88;74.79;95813.44;10476815;28;2964;-72
2024/03/19 14:18:34;;;;;;;;;;;;;;;14.66;77.39;95821.44;10494960;28;2850;-72
2024/03/19 14:23:36;;;;;;;;;;;;;;;14.48;82.67;95820.41;10491388;28;2888;-71
2024/03/19 14:28:38;;;;;;;;;;;;;;;14.63;86.04;95827.44;10495302;28;2897;-74
2024/03/19 14:33:40;;;;;;;;;;;;;;;14.52;81.68;95833.03;10493441;28;2919;-73
2024/03/19 14:38:42;;;;;;;;;;;;;;;14.58;84.17;95831.06;10500772;28;2781;-73
2024/03/19 14:43:45;;;;;;;;;;;;;;;14.66;75.52;95838.47;10493504;28;2888;-74
2024/03/19 14:48:48;;;;;;;;;;;;;;;14.52;72.33;95837.66;10494218;28;2872;-73
2024/03/19 14:53:50;;;;;;;;;;;;;;;14.55;67.38;95824.31;10505244;28;2818;-72
2024/03/19 14:58:52;;;;;;;;;;;;;;;14.88;73.25;95835.09;10491138;28;2825;-72
2024/03/19 15:03:54;;;;;;;;;;;;;;;14.77;78.09;95839.09;10489640;28;2764;-72
2024/03/19 15:08:55;;;;;;;;;;;;;;;14.95;90.66;95840.94;10489757;28;2972;-74
2024/03/19 15:13:57;;;;;;;;;;;;;;;14.00;100.00;95836.84;10487727;28;2816;-73
2024/03/19 15:18:58;;;;;;;;;;;;;;;13.81;100.00;95842.25;10489313;28;2805;-72
2024/03/19 15:24:00;;;;;;;;;;;;;;;13.76;100.00;95843.13;10475830;28;2789;-71
2024/03/19 15:29:02;;;;;;;;;;;;;;;13.70;100.00;95838.06;10488222;28;2962;-73
2024/03/19 15:34:05;;;;;;;;;;;;;;;13.65;100.00;95843.53;10489616;28;2971;-74
2024/03/19 15:39:08;;;;;;;;;;;;;;;13.45;100.00;95844.63;10487880;28;2946;-73
2024/03/19 15:44:14;;;;;;;;;;;;;;;13.66;100.00;95842.44;10496715;28;2908;-77
2024/03/19 15:49:15;;;;;;;;;;;;;;;13.42;100.00;95856.81;10481975;28;2812;-76
2024/03/19 15:54:17;;;;;;;;;;;;;;;13.29;100.00;95857.50;10491042;28;2957;-76
2024/03/19 15:59:19;;;;;;;;;;;;;;;13.12;100.00;95852.53;10499980;28;2791;-69
2024/03/19 16:04:21;;;;;;;;;;;;;;;13.14;100.00;95852.25;10509214;28;2839;-68
2024/03/19 16:09:23;;;;;;;;;;;;;;;13.23;100.00;95859.47;10501588;28;3001;-68
2024/03/19 16:14:25;;;;;;;;;;;;;;;13.23;100.00;95867.56;10504693;28;2912;-68
2024/03/19 16:19:26;;;;;;;;;;;;;;;12.97;100.00;95874.28;10507339;28;2723;-68
2024/03/19 16:24:28;;;;;;;;;;;;;;;12.84;100.00;95881.16;10507255;28;2872;-69
2024/03/19 16:29:29;;;;;;;;;;;;;;;12.57;100.00;95880.88;10503562;28;2870;-68
2024/03/19 16:34:31;;;;;;;;;;;;;;;12.50;100.00;95881.22;10516207;28;2847;-68
2024/03/19 16:39:35;;;;;;;;;;;;;;;12.33;100.00;95884.31;10511416;28;2808;-71
2024/03/19 16:44:36;;;;;;;;;;;;;;;12.30;100.00;95892.16;10509812;28;2805;-72
2024/03/19 16:49:38;;;;;;;;;;;;;;;12.18;100.00;95900.59;10502957;28;2811;-69
2024/03/19 16:54:39;;;;;;;;;;;;;;;12.03;100.00;95906.91;10513397;28;2845;-70
2024/03/19 16:59:41;;;;;;;;;;;;;;;11.91;100.00;95911.81;10506569;28;2866;-71
2024/03/19 17:04:43;;;;;;;;;;;;;;;11.78;100.00;95915.91;10506278;28;2831;-69
2024/03/19 17:09:45;;;;;;;;;;;;;;;11.61;100.00;95918.13;10504291;28;2756;-68
2024/03/19 17:14:50;;;;;;;;;;;;;;;11.44;100.00;95923.03;10509130;28;2816;-69
2024/03/19 17:19:51;;;;;;;;;;;;;;;11.33;100.00;95920.41;10508851;28;2821;-68
2024/03/19 17:24:55;;;;;;;;;;;;;;;11.23;100.00;95933.88;10505144;28;2827;-69
2024/03/19 17:29:57;;;;;;;;;;;;;;;11.11;100.00;95925.31;10510801;28;2961;-69
2024/03/19 17:34:59;;;;;;;;;;;;;;;10.91;100.00;95936.09;10505277;28;2631;-70
2024/03/19 17:40:05;;;;;;;;;;;;;;;10.91;100.00;95936.91;10505699;28;2808;-67
2024/03/19 17:45:09;;;;;;;;;;;;;;;10.81;100.00;95926.16;10506535;28;2778;-70
2024/03/19 17:50:11;;;;;;;;;;;;;;;10.60;100.00;95941.50;10493859;28;2551;-69
2024/03/19 17:55:13;;;;;;;;;;;;;;;10.51;100.00;95938.56;10503154;28;2884;-70
2024/03/19 18:00:15;;;;;;;;;;;;;;;10.48;100.00;95940.97;10503211;28;2971;-70
2024/03/19 18:05:20;;;;;;;;;;;;;;;10.31;100.00;95951.16;10513524;28;2593;-68
2024/03/19 18:10:21;;;;;;;;;;;;;;;10.24;100.00;95954.09;10503032;28;2847;-68
2024/03/19 18:15:24;;;;;;;;;;;;;;;10.02;100.00;95951.63;10484881;28;2959;-70
2024/03/19 18:20:27;;;;;;;;;;;;;;;9.91;100.00;95956.16;10505419;28;2812;-70
2024/03/19 18:25:29;;;;;;;;;;;;;;;9.92;100.00;95968.50;10503256;28;2853;-69
2024/03/19 18:30:31;;;;;;;;;;;;;;;9.72;100.00;95961.19;10483237;28;2703;-69
2024/03/19 18:35:33;;;;;;;;;;;;;;;9.58;100.00;95970.00;10503353;28;2713;-68
2024/03/19 18:40:35;;;;;;;;;;;;;;;9.55;100.00;95971.34;10502027;28;2785;-69
2024/03/19 18:45:36;;;;;;;;;;;;;;;9.63;100.00;95962.78;10500099;28;2880;-69
2024/03/19 18:50:39;;;;;;;;;;;;;;;9.52;100.00;95963.81;10525241;28;2853;-69
2024/03/19 18:55:40;;;;;;;;;;;;;;;9.43;100.00;95971.56;10504400;28;2809;-68
2024/03/19 19:00:42;;;;;;;;;;;;;;;9.42;100.00;95980.69;10505211;28;2781;-68
2024/03/19 19:05:43;;;;;;;;;;;;;;;9.35;100.00;95979.28;10500801;28;2878;-68
2024/03/19 19:10:45;;;;;;;;;;;;;;;9.31;100.00;95989.75;10501615;28;2899;-70
2024/03/19 19:15:46;;;;;;;;;;;;;;;9.21;100.00;95995.84;10506890;28;2766;-69
2024/03/19 19:20:48;;;;;;;;;;;;;;;9.25;100.00;95995.34;10496419;28;2768;-70
2024/03/19 19:25:50;;;;;;;;;;;;;;;9.19;100.00;95999.88;10519101;27;2825;-72
2024/03/19 19:30:52;;;;;;;;;;;;;;;9.11;100.00;95995.81;10485323;28;2742;-70
2024/03/19 19:35:54;;;;;;;;;;;;;;;9.03;100.00;95993.59;10482412;28;2805;-74
2024/03/19 19:40:55;;;;;;;;;;;;;;;9.07;100.00;95997.38;10487946;28;2828;-68
2024/03/19 19:45:57;;;;;;;;;;;;;;;9.01;100.00;95998.41;10472220;28;2868;-68
2024/03/19 19:50:59;;;;;;;;;;;;;;;8.91;100.00;96001.03;10495384;28;2722;-69
2024/03/19 19:56:01;;;;;;;;;;;;;;;8.86;100.00;95995.63;10479790;28;2817;-68
2024/03/19 20:01:03;;;;;;;;;;;;;;;8.89;100.00;95997.78;10473567;28;2882;-67
2024/03/19 20:06:05;;;;;;;;;;;;;;;8.86;100.00;95993.75;10483911;28;2936;-68
2024/03/19 20:11:09;;;;;;;;;;;;;;;8.89;100.00;95995.09;10489839;28;2837;-71
2024/03/19 20:16:10;;;;;;;;;;;;;;;8.78;100.00;95990.72;10489102;28;2756;-69
2024/03/19 20:21:13;;;;;;;;;;;;;;;8.69;100.00;95997.63;10487161;28;2952;-67
2024/03/19 20:26:14;;;;;;;;;;;;;;;8.72;100.00;95994.44;10491917;28;2645;-68
2024/03/19 20:31:16;;;;;;;;;;;;;;;8.66;100.00;95991.72;10488959;28;2817;-69
2024/03/19 20:36:19;;;;;;;;;;;;;;;8.62;100.00;95987.94;10492081;28;2832;-68
2024/03/19 20:41:24;;;;;;;;;;;;;;;8.58;100.00;95986.81;10487671;28;2769;-69
2024/03/19 20:46:25;;;;;;;;;;;;;;;8.51;100.00;95980.88;10489622;28;2848;-69
2024/03/19 20:51:28;;;;;;;;;;;;;;;8.50;100.00;95981.94;10498985;28;2765;-67
2024/03/19 20:56:29;;;;;;;;;;;;;;;8.35;100.00;95971.91;10487716;28;2760;-69
2024/03/19 21:01:32;;;;;;;;;;;;;;;8.26;100.00;95972.56;10495660;28;2904;-69
2024/03/19 21:06:34;;;;;;;;;;;;;;;8.24;100.00;95969.34;10497457;28;2864;-68
2024/03/19 21:11:35;;;;;;;;;;;;;;;8.19;100.00;95967.41;10480594;28;2969;-70
2024/03/19 21:16:37;;;;;;;;;;;;;;;8.10;100.00;95967.09;10496392;28;2949;-72
2024/03/19 21:21:39;;;;;;;;;;;;;;;8.07;100.00;95970.25;10491516;28;2912;-72
2024/03/19 21:26:41;;;;;;;;;;;;;;;7.97;100.00;95962.13;10493323;28;2768;-67
2024/03/19 21:31:43;;;;;;;;;;;;;;;8.00;100.00;95963.47;10498224;28;2748;-66
2024/03/19 21:36:45;;;;;;;;;;;;;;;7.98;100.00;95969.09;10492525;28;2802;-67
2024/03/19 21:41:47;;;;;;;;;;;;;;;7.97;100.00;95969.34;10493792;28;2844;-68
2024/03/19 21:46:49;;;;;;;;;;;;;;;7.91;100.00;95960.47;10494612;28;2885;-68
2024/03/19 21:51:51;;;;;;;;;;;;;;;7.84;100.00;95966.00;10499928;28;2867;-69
2024/03/19 21:56:52;;;;;;;;;;;;;;;7.73;100.00;95968.81;10495194;28;2816;-74
2024/03/19 22:01:55;;;;;;;;;;;;;;;7.72;100.00;95965.34;10497220;28;2693;-67
2024/03/19 22:06:57;;;;;;;;;;;;;;;7.68;100.00;95971.44;10494209;28;2850;-70
2024/03/19 22:11:58;;;;;;;;;;;;;;;7.46;100.00;95974.94;10497622;28;2754;-70
2024/03/19 22:17:03;;;;;;;;;;;;;;;7.31;100.00;95977.41;10500921;28;2879;-68
2024/03/19 22:22:04;;;;;;;;;;;;;;;7.24;100.00;95966.06;10473133;28;2835;-72
2024/03/19 22:27:06;;;;;;;;;;;;;;;7.19;100.00;95966.00;10492173;28;2791;-72
2024/03/19 22:32:08;;;;;;;;;;;;;;;7.12;100.00;95968.06;10497623;28;3054;-73
2024/03/19 22:37:09;;;;;;;;;;;;;;;7.09;100.00;95965.88;10494984;28;2610;-74
2024/03/19 22:42:13;;;;;;;;;;;;;;;7.00;100.00;95965.50;10495029;28;2520;-70
2024/03/19 22:47:16;;;;;;;;;;;;;;;6.81;100.00;95977.50;10494209;28;2853;-70
2024/03/19 22:52:18;;;;;;;;;;;;;;;6.70;100.00;95972.00;10501731;28;2861;-68
2024/03/19 22:57:20;;;;;;;;;;;;;;;6.70;100.00;95971.22;10496296;28;2794;-68
2024/03/19 23:02:22;;;;;;;;;;;;;;;6.71;100.00;95962.13;10497350;28;2840;-68
2024/03/19 23:07:23;;;;;;;;;;;;;;;6.63;100.00;95962.56;10471112;28;2832;-70
2024/03/19 23:12:26;;;;;;;;;;;;;;;6.59;100.00;95964.88;10492612;28;2773;-67
2024/03/19 23:17:27;;;;;;;;;;;;;;;6.61;100.00;95969.97;10488948;28;2814;-68
2024/03/19 23:22:31;;;;;;;;;;;;;;;6.47;100.00;95972.97;10493457;28;2885;-68
2024/03/19 23:27:34;;;;;;;;;;;;;;;6.51;100.00;95973.31;10490853;28;2742;-68
2024/03/19 23:32:35;;;;;;;;;;;;;;;6.46;100.00;95973.22;10492122;28;2822;-68
2024/03/19 23:37:37;;;;;;;;;;;;;;;6.44;100.00;95964.66;10489717;28;2828;-69
2024/03/19 23:42:40;;;;;;;;;;;;;;;6.40;100.00;95956.31;10487825;28;2796;-67
2024/03/19 23:47:42;;;;;;;;;;;;;;;6.38;100.00;95958.44;10491499;28;2657;-67
2024/03/19 23:52:44;;;;;;;;;;;;;;;6.35;100.00;95958.09;10495734;28;2807;-68
2024/03/19 23:57:45;;;;;;;;;;;;;;;6.21;100.00;95957.59;10487303;28;2831;-67
